sensor_id;sensor_type;location;lat;lon;timestamp;pressure;altitude;pressure_sealevel;temperature;humidity
58467;BME280;44255;49.244;7.726;2023-02-26T04:33:06;98079.81;;;-3.55;45.66
58467;BME280;44255;49.244;7.726;2023-02-26T04:35:32;98077.22;;;-3.59;45.62
58467;BME280;44255;49.244;7.726;2023-02-26T04:37:57;98068.56;;;-3.65;45.94
58467;BME280;44255;49.244;7.726;2023-02-26T04:40:23;98076.84;;;-3.89;46.84
58467;BME280;44255;49.244;7.726;2023-02-26T04:42:48;98082.66;;;-3.68;46.49
58467;BME280;44255;49.244;7.726;2023-02-26T04:45:13;98083.53;;;-3.67;46.16
58467;BME280;44255;49.244;7.726;2023-02-26T04:47:39;98094.78;;;-3.57;46.73
58467;BME280;44255;49.244;7.726;2023-02-26T04:50:04;98095.59;;;-3.52;46.06
58467;BME280;44255;49.244;7.726;2023-02-26T04:52:30;98099.19;;;-3.60;46.22
58467;BME280;44255;49.244;7.726;2023-02-26T04:54:55;98100.28;;;-3.73;46.53
58467;BME280;44255;49.244;7.726;2023-02-26T04:57:20;98103.75;;;-3.69;46.50
58467;BME280;44255;49.244;7.726;2023-02-26T04:59:46;98107.16;;;-3.61;45.27
58467;BME280;44255;49.244;7.726;2023-02-26T05:02:11;98102.00;;;-3.69;46.00
58467;BME280;44255;49.244;7.726;2023-02-26T05:04:36;98104.56;;;-3.66;46.46
58467;BME280;44255;49.244;7.726;2023-02-26T05:07:02;98105.47;;;-3.67;45.93
58467;BME280;44255;49.244;7.726;2023-02-26T05:09:27;98110.50;;;-4.12;47.52
58467;BME280;44255;49.244;7.726;2023-02-26T05:11:52;98107.72;;;-4.02;47.48
58467;BME280;44255;49.244;7.726;2023-02-26T05:14:17;98110.38;;;-4.02;47.88
58467;BME280;44255;49.244;7.726;2023-02-26T05:16:43;98102.97;;;-3.76;46.67
58467;BME280;44255;49.244;7.726;2023-02-26T05:19:08;98103.09;;;-3.84;47.09
58467;BME280;44255;49.244;7.726;2023-02-26T05:21:33;98116.56;;;-4.04;47.42
58467;BME280;44255;49.244;7.726;2023-02-26T05:23:58;98110.06;;;-3.80;47.31
58467;BME280;44255;49.244;7.726;2023-02-26T05:26:24;98122.13;;;-3.63;47.00
58467;BME280;44255;49.244;7.726;2023-02-26T05:28:49;98114.09;;;-3.59;46.79
58467;BME280;44255;49.244;7.726;2023-02-26T05:31:14;98112.91;;;-3.39;46.67
58467;BME280;44255;49.244;7.726;2023-02-26T05:33:40;98126.84;;;-3.31;46.53
58467;BME280;44255;49.244;7.726;2023-02-26T05:36:05;98123.81;;;-3.61;46.54
58467;BME280;44255;49.244;7.726;2023-02-26T05:38:31;98126.00;;;-3.33;46.61
58467;BME280;44255;49.244;7.726;2023-02-26T05:40:56;98131.03;;;-3.17;46.78
58467;BME280;44255;49.244;7.726;2023-02-26T05:43:22;98136.53;;;-3.33;46.60
58467;BME280;44255;49.244;7.726;2023-02-26T05:45:49;98146.16;;;-3.87;48.25
58467;BME280;44255;49.244;7.726;2023-02-26T05:48:14;98150.38;;;-3.18;47.15
58467;BME280;44255;49.244;7.726;2023-02-26T05:50:39;98148.31;;;-3.00;46.96
58467;BME280;44255;49.244;7.726;2023-02-26T05:53:05;98140.84;;;-2.78;46.56
58467;BME280;44255;49.244;7.726;2023-02-26T05:55:30;98149.72;;;-2.82;47.06
58467;BME280;44255;49.244;7.726;2023-02-26T05:57:55;98149.81;;;-2.87;46.93
58467;BME280;44255;49.244;7.726;2023-02-26T06:00:20;98150.88;;;-2.50;46.38
58467;BME280;44255;49.244;7.726;2023-02-26T06:02:45;98149.56;;;-2.73;47.15
58467;BME280;44255;49.244;7.726;2023-02-26T06:05:11;98155.69;;;-2.73;47.25
58467;BME280;44255;49.244;7.726;2023-02-26T06:07:36;98156.59;;;-2.74;47.21
58467;BME280;44255;49.244;7.726;2023-02-26T06:10:01;98158.25;;;-2.68;47.48
58467;BME280;44255;49.244;7.726;2023-02-26T06:12:26;98161.25;;;-2.88;47.15
58467;BME280;44255;49.244;7.726;2023-02-26T06:14:51;98167.81;;;-2.62;46.51
58467;BME280;44255;49.244;7.726;2023-02-26T06:17:17;98170.34;;;-2.56;46.53
58467;BME280;44255;49.244;7.726;2023-02-26T06:19:42;98162.50;;;-2.59;46.53
58467;BME280;44255;49.244;7.726;2023-02-26T06:22:08;98176.00;;;-2.29;46.39
58467;BME280;44255;49.244;7.726;2023-02-26T06:24:34;98176.41;;;-2.51;46.61
58467;BME280;44255;49.244;7.726;2023-02-26T06:26:59;98179.06;;;-2.99;47.18
58467;BME280;44255;49.244;7.726;2023-02-26T06:29:24;98184.28;;;-2.48;47.08
58467;BME280;44255;49.244;7.726;2023-02-26T06:31:49;98187.22;;;-2.18;46.55
58467;BME280;44255;49.244;7.726;2023-02-26T06:34:14;98189.88;;;-2.21;46.28
58467;BME280;44255;49.244;7.726;2023-02-26T06:36:40;98187.66;;;-2.41;46.80
58467;BME280;44255;49.244;7.726;2023-02-26T06:39:05;98200.56;;;-2.25;46.49
58467;BME280;44255;49.244;7.726;2023-02-26T06:41:32;98202.53;;;-1.91;45.99
58467;BME280;44255;49.244;7.726;2023-02-26T06:43:57;98212.38;;;-2.01;46.10
58467;BME280;44255;49.244;7.726;2023-02-26T06:46:23;98211.47;;;-1.97;45.83
58467;BME280;44255;49.244;7.726;2023-02-26T06:48:48;98213.88;;;-1.88;46.00
58467;BME280;44255;49.244;7.726;2023-02-26T06:51:13;98221.19;;;-2.02;46.31
58467;BME280;44255;49.244;7.726;2023-02-26T06:53:39;98230.84;;;-1.99;46.12
58467;BME280;44255;49.244;7.726;2023-02-26T06:56:04;98231.03;;;-2.09;46.29
58467;BME280;44255;49.244;7.726;2023-02-26T06:58:30;98243.19;;;-2.00;46.81
58467;BME280;44255;49.244;7.726;2023-02-26T07:00:55;98244.00;;;-1.95;46.08
58467;BME280;44255;49.244;7.726;2023-02-26T07:03:20;98246.19;;;-1.73;45.79
58467;BME280;44255;49.244;7.726;2023-02-26T07:05:45;98248.22;;;-1.88;46.08
58467;BME280;44255;49.244;7.726;2023-02-26T07:08:11;98247.72;;;-1.63;45.38
58467;BME280;44255;49.244;7.726;2023-02-26T07:10:37;98235.47;;;-1.67;46.23
58467;BME280;44255;49.244;7.726;2023-02-26T07:13:03;98247.66;;;-1.60;45.64
58467;BME280;44255;49.244;7.726;2023-02-26T07:15:28;98253.78;;;-1.57;45.48
58467;BME280;44255;49.244;7.726;2023-02-26T07:17:54;98250.38;;;-1.63;45.42
58467;BME280;44255;49.244;7.726;2023-02-26T07:20:19;98258.13;;;-1.55;45.37
58467;BME280;44255;49.244;7.726;2023-02-26T07:22:44;98254.84;;;-1.25;45.15
58467;BME280;44255;49.244;7.726;2023-02-26T07:25:11;98269.31;;;-1.42;44.82
58467;BME280;44255;49.244;7.726;2023-02-26T07:27:36;98259.41;;;-1.32;44.85
58467;BME280;44255;49.244;7.726;2023-02-26T07:30:02;98264.25;;;-1.53;44.64
58467;BME280;44255;49.244;7.726;2023-02-26T07:32:28;98262.13;;;-1.37;44.18
58467;BME280;44255;49.244;7.726;2023-02-26T07:34:53;98268.72;;;-1.56;44.26
58467;BME280;44255;49.244;7.726;2023-02-26T07:37:18;98257.31;;;-1.58;44.38
58467;BME280;44255;49.244;7.726;2023-02-26T07:39:44;98274.25;;;-1.26;44.03
58467;BME280;44255;49.244;7.726;2023-02-26T07:42:09;98271.34;;;-1.14;43.46
58467;BME280;44255;49.244;7.726;2023-02-26T07:44:34;98273.13;;;-1.55;43.95
58467;BME280;44255;49.244;7.726;2023-02-26T07:47:00;98284.41;;;-1.47;44.19
58467;BME280;44255;49.244;7.726;2023-02-26T07:49:26;98281.63;;;-1.42;43.35
58467;BME280;44255;49.244;7.726;2023-02-26T07:51:51;98290.38;;;-1.39;43.48
58467;BME280;44255;49.244;7.726;2023-02-26T07:54:16;98302.44;;;-1.25;43.38
58467;BME280;44255;49.244;7.726;2023-02-26T07:56:42;98290.50;;;-1.04;43.05
58467;BME280;44255;49.244;7.726;2023-02-26T07:59:07;98291.44;;;-1.07;43.06
58467;BME280;44255;49.244;7.726;2023-02-26T08:01:33;98302.19;;;-1.55;43.69
58467;BME280;44255;49.244;7.726;2023-02-26T08:03:58;98304.97;;;-1.62;43.33
58467;BME280;44255;49.244;7.726;2023-02-26T08:06:23;98310.50;;;-1.74;43.91
58467;BME280;44255;49.244;7.726;2023-02-26T08:08:48;98319.69;;;-1.48;43.81
58467;BME280;44255;49.244;7.726;2023-02-26T08:11:13;98315.75;;;-1.30;43.46
58467;BME280;44255;49.244;7.726;2023-02-26T08:13:39;98312.09;;;-1.23;42.92
58467;BME280;44255;49.244;7.726;2023-02-26T08:16:04;98311.84;;;-1.54;43.17
58467;BME280;44255;49.244;7.726;2023-02-26T08:18:29;98312.00;;;-1.61;42.81
58467;BME280;44255;49.244;7.726;2023-02-26T08:20:54;98312.09;;;-1.24;42.79
58467;BME280;44255;49.244;7.726;2023-02-26T08:23:20;98324.06;;;-1.49;42.89
58467;BME280;44255;49.244;7.726;2023-02-26T08:25:45;98317.00;;;-1.07;42.15
58467;BME280;44255;49.244;7.726;2023-02-26T08:28:11;98312.44;;;-1.00;41.91
58467;BME280;44255;49.244;7.726;2023-02-26T08:30:36;98320.97;;;-1.27;42.46
58467;BME280;44255;49.244;7.726;2023-02-26T08:33:01;98308.22;;;-1.08;41.92
58467;BME280;44255;49.244;7.726;2023-02-26T08:35:27;98309.13;;;-1.09;41.93
58467;BME280;44255;49.244;7.726;2023-02-26T08:37:52;98311.59;;;-1.42;42.04
58467;BME280;44255;49.244;7.726;2023-02-26T08:40:17;98305.66;;;-1.53;41.69
58467;BME280;44255;49.244;7.726;2023-02-26T08:42:42;98308.22;;;-1.49;41.88
58467;BME280;44255;49.244;7.726;2023-02-26T08:45:08;98317.22;;;-1.17;41.65
58467;BME280;44255;49.244;7.726;2023-02-26T08:47:34;98328.53;;;-1.51;42.31
58467;BME280;44255;49.244;7.726;2023-02-26T08:49:59;98322.53;;;-1.18;42.04
58467;BME280;44255;49.244;7.726;2023-02-26T08:52:24;98344.00;;;-0.91;40.95
58467;BME280;44255;49.244;7.726;2023-02-26T08:54:50;98334.22;;;-0.88;41.21
58467;BME280;44255;49.244;7.726;2023-02-26T08:57:15;98340.28;;;-1.23;41.15
58467;BME280;44255;49.244;7.726;2023-02-26T08:59:40;98340.72;;;-1.03;41.20
58467;BME280;44255;49.244;7.726;2023-02-26T09:02:06;98336.91;;;-1.30;41.54
58467;BME280;44255;49.244;7.726;2023-02-26T09:04:31;98353.59;;;-1.26;41.75
58467;BME280;44255;49.244;7.726;2023-02-26T09:06:56;98358.66;;;-1.58;42.29
58467;BME280;44255;49.244;7.726;2023-02-26T09:09:22;98355.31;;;-1.25;41.69
58467;BME280;44255;49.244;7.726;2023-02-26T09:11:47;98359.38;;;-1.09;41.65
58467;BME280;44255;49.244;7.726;2023-02-26T09:14:12;98353.75;;;-0.93;41.05
58467;BME280;44255;49.244;7.726;2023-02-26T09:16:38;98362.41;;;-1.27;42.09
58467;BME280;44255;49.244;7.726;2023-02-26T09:19:05;98363.19;;;-0.83;41.03
58467;BME280;44255;49.244;7.726;2023-02-26T09:21:31;98369.56;;;-0.92;41.93
58467;BME280;44255;49.244;7.726;2023-02-26T09:23:56;98364.41;;;-0.98;42.29
58467;BME280;44255;49.244;7.726;2023-02-26T09:26:22;98371.94;;;-0.79;41.94
58467;BME280;44255;49.244;7.726;2023-02-26T09:28:47;98387.41;;;-1.00;42.65
58467;BME280;44255;49.244;7.726;2023-02-26T09:31:12;98385.47;;;-0.54;42.17
58467;BME280;44255;49.244;7.726;2023-02-26T09:33:38;98376.50;;;-0.86;42.30
58467;BME280;44255;49.244;7.726;2023-02-26T09:36:03;98378.38;;;-0.90;42.70
58467;BME280;44255;49.244;7.726;2023-02-26T09:38:28;98376.31;;;-0.40;41.64
58467;BME280;44255;49.244;7.726;2023-02-26T09:40:57;98396.06;;;-0.54;43.31
58467;BME280;44255;49.244;7.726;2023-02-26T09:43:47;98376.66;;;-0.92;42.35
58467;BME280;44255;49.244;7.726;2023-02-26T09:46:37;98390.31;;;-0.35;42.61
58467;BME280;44255;49.244;7.726;2023-02-26T09:49:15;98383.44;;;-0.42;42.50
58467;BME280;44255;49.244;7.726;2023-02-26T09:51:45;98393.34;;;-0.14;41.84
58467;BME280;44255;49.244;7.726;2023-02-26T09:54:23;98393.16;;;-0.81;42.60
58467;BME280;44255;49.244;7.726;2023-02-26T09:56:50;98399.41;;;-0.46;41.77
58467;BME280;44255;49.244;7.726;2023-02-26T09:59:16;98396.59;;;-0.38;41.56
58467;BME280;44255;49.244;7.726;2023-02-26T10:04:40;98398.06;;;-0.65;42.25
58467;BME280;44255;49.244;7.726;2023-02-26T10:07:42;98401.44;;;-0.21;41.95
58467;BME280;44255;49.244;7.726;2023-02-26T10:10:37;98398.59;;;-0.13;41.61
58467;BME280;44255;49.244;7.726;2023-02-26T10:13:21;98399.69;;;-0.20;41.07
58467;BME280;44255;49.244;7.726;2023-02-26T10:15:49;98399.06;;;0.03;40.66
58467;BME280;44255;49.244;7.726;2023-02-26T10:18:21;98400.25;;;-0.07;41.01
58467;BME280;44255;49.244;7.726;2023-02-26T10:21:09;98403.56;;;-0.35;40.96
58467;BME280;44255;49.244;7.726;2023-02-26T10:23:45;98406.81;;;-0.24;41.24
58467;BME280;44255;49.244;7.726;2023-02-26T10:26:34;98417.22;;;0.19;40.58
58467;BME280;44255;49.244;7.726;2023-02-26T10:31:54;98394.75;;;0.01;40.22
58467;BME280;44255;49.244;7.726;2023-02-26T10:34:35;98407.84;;;0.40;40.13
58467;BME280;44255;49.244;7.726;2023-02-26T10:40:15;98405.22;;;0.05;39.84
58467;BME280;44255;49.244;7.726;2023-02-26T10:42:58;98400.03;;;0.01;39.48
58467;BME280;44255;49.244;7.726;2023-02-26T10:45:27;98414.75;;;0.13;39.50
58467;BME280;44255;49.244;7.726;2023-02-26T10:48:26;98417.81;;;-0.41;40.11
58467;BME280;44255;49.244;7.726;2023-02-26T10:50:57;98417.22;;;0.19;39.56
58467;BME280;44255;49.244;7.726;2023-02-26T10:53:25;98404.16;;;0.46;38.74
58467;BME280;44255;49.244;7.726;2023-02-26T10:56:16;98405.06;;;0.11;39.69
58467;BME280;44255;49.244;7.726;2023-02-26T10:58:44;98410.66;;;0.34;39.59
58467;BME280;44255;49.244;7.726;2023-02-26T11:01:19;98412.31;;;0.38;38.79
58467;BME280;44255;49.244;7.726;2023-02-26T11:03:54;98404.69;;;0.60;38.89
58467;BME280;44255;49.244;7.726;2023-02-26T11:06:23;98403.91;;;0.55;38.69
58467;BME280;44255;49.244;7.726;2023-02-26T11:08:51;98410.09;;;0.87;38.59
58467;BME280;44255;49.244;7.726;2023-02-26T11:14:04;98409.69;;;0.70;38.31
58467;BME280;44255;49.244;7.726;2023-02-26T11:16:31;98412.09;;;0.79;37.62
58467;BME280;44255;49.244;7.726;2023-02-26T11:18:57;98406.44;;;0.60;37.65
58467;BME280;44255;49.244;7.726;2023-02-26T11:21:27;98414.38;;;0.61;37.83
58467;BME280;44255;49.244;7.726;2023-02-26T11:24:02;98420.47;;;0.65;38.25
58467;BME280;44255;49.244;7.726;2023-02-26T11:26:34;98421.41;;;1.24;37.28
58467;BME280;44255;49.244;7.726;2023-02-26T11:29:01;98432.28;;;0.85;37.18
58467;BME280;44255;49.244;7.726;2023-02-26T11:31:26;98430.84;;;1.04;36.47
58467;BME280;44255;49.244;7.726;2023-02-26T11:33:54;98444.38;;;0.63;37.35
58467;BME280;44255;49.244;7.726;2023-02-26T11:36:25;98436.19;;;0.71;37.96
58467;BME280;44255;49.244;7.726;2023-02-26T11:39:18;98442.63;;;0.62;38.17
58467;BME280;44255;49.244;7.726;2023-02-26T11:41:44;98443.69;;;0.22;37.78
58467;BME280;44255;49.244;7.726;2023-02-26T11:44:13;98443.31;;;0.36;37.92
58467;BME280;44255;49.244;7.726;2023-02-26T11:46:45;98448.41;;;0.44;37.79
58467;BME280;44255;49.244;7.726;2023-02-26T11:49:16;98452.41;;;-0.09;38.59
58467;BME280;44255;49.244;7.726;2023-02-26T11:51:46;98447.41;;;0.13;38.08
58467;BME280;44255;49.244;7.726;2023-02-26T11:54:23;98448.88;;;-0.10;38.91
58467;BME280;44255;49.244;7.726;2023-02-26T11:56:49;98446.63;;;0.09;38.18
58467;BME280;44255;49.244;7.726;2023-02-26T11:59:20;98440.03;;;0.26;37.79
58467;BME280;44255;49.244;7.726;2023-02-26T12:01:46;98438.59;;;0.13;37.62
58467;BME280;44255;49.244;7.726;2023-02-26T12:04:17;98445.84;;;0.04;37.70
58467;BME280;44255;49.244;7.726;2023-02-26T12:06:45;98441.81;;;-0.11;37.68
58467;BME280;44255;49.244;7.726;2023-02-26T12:09:12;98437.25;;;-0.04;37.58
58467;BME280;44255;49.244;7.726;2023-02-26T12:17:14;98452.41;;;-0.11;38.14
58467;BME280;44255;49.244;7.726;2023-02-26T12:28:35;98449.25;;;0.44;36.96
58467;BME280;44255;49.244;7.726;2023-02-26T12:42:20;98453.97;;;0.67;36.82
58467;BME280;44255;49.244;7.726;2023-02-26T12:45:16;98456.44;;;0.40;36.98
58467;BME280;44255;49.244;7.726;2023-02-26T12:48:05;98455.44;;;0.10;37.07
58467;BME280;44255;49.244;7.726;2023-02-26T12:51:00;98458.88;;;0.15;37.57
58467;BME280;44255;49.244;7.726;2023-02-26T12:59:26;98461.09;;;0.65;36.61
58467;BME280;44255;49.244;7.726;2023-02-26T13:04:34;98459.94;;;1.07;36.75
58467;BME280;44255;49.244;7.726;2023-02-26T13:07:23;98461.72;;;0.75;36.93
58467;BME280;44255;49.244;7.726;2023-02-26T13:12:41;98461.78;;;0.74;36.57
58467;BME280;44255;49.244;7.726;2023-02-26T13:20:57;98456.94;;;0.57;36.81
58467;BME280;44255;49.244;7.726;2023-02-26T13:23:30;98459.78;;;0.82;36.26
58467;BME280;44255;49.244;7.726;2023-02-26T13:26:05;98449.75;;;0.92;35.70
58467;BME280;44255;49.244;7.726;2023-02-26T13:31:08;98450.81;;;0.86;36.03
58467;BME280;44255;49.244;7.726;2023-02-26T13:33:36;98456.72;;;0.64;36.51
58467;BME280;44255;49.244;7.726;2023-02-26T13:36:03;98450.94;;;0.81;36.25
58467;BME280;44255;49.244;7.726;2023-02-26T13:38:45;98446.78;;;1.90;34.74
58467;BME280;44255;49.244;7.726;2023-02-26T13:41:23;98439.59;;;1.93;34.38
58467;BME280;44255;49.244;7.726;2023-02-26T13:44:09;98434.06;;;2.79;32.77
58467;BME280;44255;49.244;7.726;2023-02-26T13:46:52;98446.72;;;1.64;33.85
58467;BME280;44255;49.244;7.726;2023-02-26T13:51:51;98451.50;;;1.53;34.39
58467;BME280;44255;49.244;7.726;2023-02-26T14:01:57;98453.75;;;1.65;33.48
58467;BME280;44255;49.244;7.726;2023-02-26T14:04:28;98448.03;;;1.79;34.07
58467;BME280;44255;49.244;7.726;2023-02-26T14:06:55;98460.78;;;1.39;34.35
58467;BME280;44255;49.244;7.726;2023-02-26T14:14:47;98469.75;;;1.04;35.10
58467;BME280;44255;49.244;7.726;2023-02-26T14:18:00;98472.72;;;0.93;35.15
58467;BME280;44255;49.244;7.726;2023-02-26T14:20:28;98466.97;;;1.10;34.81
58467;BME280;44255;49.244;7.726;2023-02-26T14:25:40;98479.81;;;1.24;35.17
58467;BME280;44255;49.244;7.726;2023-02-26T14:31:06;98477.34;;;1.18;35.42
58467;BME280;44255;49.244;7.726;2023-02-26T14:36:16;98482.50;;;1.22;34.74
58467;BME280;44255;49.244;7.726;2023-02-26T14:38:43;98476.91;;;1.02;35.27
58467;BME280;44255;49.244;7.726;2023-02-26T14:41:28;98486.13;;;0.88;34.63
58467;BME280;44255;49.244;7.726;2023-02-26T14:43:59;98491.94;;;1.33;34.58
58467;BME280;44255;49.244;7.726;2023-02-26T14:46:26;98487.41;;;1.06;34.75
58467;BME280;44255;49.244;7.726;2023-02-26T14:48:51;98491.53;;;1.17;35.06
58467;BME280;44255;49.244;7.726;2023-02-26T14:54:11;98485.34;;;1.46;34.68
58467;BME280;44255;49.244;7.726;2023-02-26T15:00:00;98491.31;;;2.12;33.34
58467;BME280;44255;49.244;7.726;2023-02-26T15:14:02;98501.88;;;1.56;33.40
58467;BME280;44255;49.244;7.726;2023-02-26T15:19:30;98492.44;;;3.33;32.32
58467;BME280;44255;49.244;7.726;2023-02-26T15:22:25;98503.41;;;3.93;30.75
58467;BME280;44255;49.244;7.726;2023-02-26T15:24:52;98499.06;;;3.21;31.42
58467;BME280;44255;49.244;7.726;2023-02-26T15:27:18;98507.91;;;2.72;32.46
58467;BME280;44255;49.244;7.726;2023-02-26T15:29:45;98503.34;;;2.76;32.37
58467;BME280;44255;49.244;7.726;2023-02-26T15:32:30;98498.72;;;2.56;32.81
58467;BME280;44255;49.244;7.726;2023-02-26T15:35:00;98520.72;;;1.77;33.03
58467;BME280;44255;49.244;7.726;2023-02-26T15:37:29;98527.53;;;1.86;33.74
58467;BME280;44255;49.244;7.726;2023-02-26T15:39:58;98531.88;;;1.60;33.87
58467;BME280;44255;49.244;7.726;2023-02-26T15:42:29;98535.16;;;1.38;33.56
58467;BME280;44255;49.244;7.726;2023-02-26T15:44:59;98543.88;;;0.78;34.88
58467;BME280;44255;49.244;7.726;2023-02-26T15:47:27;98547.78;;;0.98;35.20
58467;BME280;44255;49.244;7.726;2023-02-26T15:49:53;98539.69;;;0.70;34.91
58467;BME280;44255;49.244;7.726;2023-02-26T15:52:21;98548.09;;;0.52;35.22
58467;BME280;44255;49.244;7.726;2023-02-26T15:54:51;98551.53;;;0.89;34.51
58467;BME280;44255;49.244;7.726;2023-02-26T15:57:18;98539.50;;;0.41;35.73
58467;BME280;44255;49.244;7.726;2023-02-26T15:59:47;98546.00;;;0.99;35.28
58467;BME280;44255;49.244;7.726;2023-02-26T16:02:15;98548.53;;;1.03;34.93
58467;BME280;44255;49.244;7.726;2023-02-26T16:04:42;98549.69;;;0.93;35.46
58467;BME280;44255;49.244;7.726;2023-02-26T16:07:09;98547.84;;;1.28;34.05
58467;BME280;44255;49.244;7.726;2023-02-26T16:09:39;98547.81;;;1.30;34.05
58467;BME280;44255;49.244;7.726;2023-02-26T16:12:18;98552.88;;;1.06;34.54
58467;BME280;44255;49.244;7.726;2023-02-26T16:14:56;98548.25;;;1.13;34.59
58467;BME280;44255;49.244;7.726;2023-02-26T16:17:26;98557.91;;;1.17;34.38
58467;BME280;44255;49.244;7.726;2023-02-26T16:19:54;98562.09;;;1.25;34.18
58467;BME280;44255;49.244;7.726;2023-02-26T16:22:30;98553.91;;;1.33;34.04
58467;BME280;44255;49.244;7.726;2023-02-26T16:24:59;98562.34;;;0.83;34.66
58467;BME280;44255;49.244;7.726;2023-02-26T16:27:27;98565.28;;;0.72;34.68
58467;BME280;44255;49.244;7.726;2023-02-26T16:29:55;98572.88;;;0.51;35.21
58467;BME280;44255;49.244;7.726;2023-02-26T16:32:23;98567.28;;;0.62;34.83
58467;BME280;44255;49.244;7.726;2023-02-26T16:34:52;98566.91;;;0.78;34.45
58467;BME280;44255;49.244;7.726;2023-02-26T16:37:33;98578.72;;;0.64;34.39
58467;BME280;44255;49.244;7.726;2023-02-26T16:40:17;98583.13;;;0.28;34.50
58467;BME280;44255;49.244;7.726;2023-02-26T16:47:56;98591.97;;;0.66;33.83
58467;BME280;44255;49.244;7.726;2023-02-26T16:50:25;98606.78;;;0.75;34.49
58467;BME280;44255;49.244;7.726;2023-02-26T16:52:59;98610.66;;;0.60;33.63
58467;BME280;44255;49.244;7.726;2023-02-26T16:55:28;98598.28;;;0.21;33.80
58467;BME280;44255;49.244;7.726;2023-02-26T16:57:55;98602.22;;;0.80;32.92
58467;BME280;44255;49.244;7.726;2023-02-26T17:00:22;98613.97;;;0.32;33.38
58467;BME280;44255;49.244;7.726;2023-02-26T17:02:56;98606.97;;;0.28;33.77
58467;BME280;44255;49.244;7.726;2023-02-26T17:05:26;98610.50;;;0.28;33.99
58467;BME280;44255;49.244;7.726;2023-02-26T17:08:08;98615.81;;;0.28;33.40
58467;BME280;44255;49.244;7.726;2023-02-26T17:10:50;98623.38;;;0.07;33.76
58467;BME280;44255;49.244;7.726;2023-02-26T17:13:23;98618.00;;;0.09;33.81
58467;BME280;44255;49.244;7.726;2023-02-26T17:15:49;98628.06;;;0.34;33.68
58467;BME280;44255;49.244;7.726;2023-02-26T17:18:16;98624.31;;;0.03;34.01
58467;BME280;44255;49.244;7.726;2023-02-26T17:20:42;98627.81;;;0.43;34.09
58467;BME280;44255;49.244;7.726;2023-02-26T17:23:11;98626.16;;;0.39;33.63
58467;BME280;44255;49.244;7.726;2023-02-26T17:25:41;98637.69;;;-0.01;33.78
58467;BME280;44255;49.244;7.726;2023-02-26T17:28:11;98640.63;;;-0.15;34.40
58467;BME280;44255;49.244;7.726;2023-02-26T17:30:37;98647.38;;;0.39;34.13
58467;BME280;44255;49.244;7.726;2023-02-26T17:33:02;98643.78;;;0.02;34.43
58467;BME280;44255;49.244;7.726;2023-02-26T17:35:29;98639.75;;;0.25;34.74
58467;BME280;44255;49.244;7.726;2023-02-26T17:37:55;98642.41;;;0.25;34.40
58467;BME280;44255;49.244;7.726;2023-02-26T17:40:26;98649.56;;;0.20;34.03
58467;BME280;44255;49.244;7.726;2023-02-26T17:42:52;98656.97;;;0.05;34.32
58467;BME280;44255;49.244;7.726;2023-02-26T17:45:18;98650.66;;;0.11;34.08
58467;BME280;44255;49.244;7.726;2023-02-26T17:47:45;98660.16;;;0.21;34.71
58467;BME280;44255;49.244;7.726;2023-02-26T17:50:25;98668.00;;;-0.15;35.16
58467;BME280;44255;49.244;7.726;2023-02-26T17:52:53;98663.75;;;-0.24;35.76
58467;BME280;44255;49.244;7.726;2023-02-26T17:55:18;98673.31;;;-0.17;35.77
58467;BME280;44255;49.244;7.726;2023-02-26T17:57:43;98676.47;;;-0.43;35.69
58467;BME280;44255;49.244;7.726;2023-02-26T18:00:10;98682.59;;;-0.38;35.99
58467;BME280;44255;49.244;7.726;2023-02-26T18:02:39;98676.63;;;-0.07;35.50
58467;BME280;44255;49.244;7.726;2023-02-26T18:05:04;98676.94;;;-0.22;35.86
58467;BME280;44255;49.244;7.726;2023-02-26T18:07:30;98677.59;;;-0.09;36.06
58467;BME280;44255;49.244;7.726;2023-02-26T18:09:55;98681.72;;;-0.40;36.59
58467;BME280;44255;49.244;7.726;2023-02-26T18:12:21;98689.94;;;-0.08;36.02
58467;BME280;44255;49.244;7.726;2023-02-26T18:14:46;98679.88;;;-0.35;36.15
58467;BME280;44255;49.244;7.726;2023-02-26T18:17:14;98680.88;;;-0.42;36.57
58467;BME280;44255;49.244;7.726;2023-02-26T18:19:41;98690.31;;;-0.27;36.20
58467;BME280;44255;49.244;7.726;2023-02-26T18:22:11;98684.03;;;-0.21;36.02
58467;BME280;44255;49.244;7.726;2023-02-26T18:24:37;98682.44;;;-0.32;36.25
58467;BME280;44255;49.244;7.726;2023-02-26T18:27:04;98694.28;;;-0.06;35.82
58467;BME280;44255;49.244;7.726;2023-02-26T18:29:30;98691.97;;;-0.21;36.25
58467;BME280;44255;49.244;7.726;2023-02-26T18:31:55;98692.00;;;-0.23;36.03
58467;BME280;44255;49.244;7.726;2023-02-26T18:34:20;98693.00;;;-0.30;36.74
58467;BME280;44255;49.244;7.726;2023-02-26T18:36:46;98691.44;;;-0.40;36.27
58467;BME280;44255;49.244;7.726;2023-02-26T18:39:14;98688.75;;;-0.39;36.37
58467;BME280;44255;49.244;7.726;2023-02-26T18:41:40;98694.66;;;-0.24;35.65
58467;BME280;44255;49.244;7.726;2023-02-26T18:44:06;98694.84;;;-0.34;35.75
58467;BME280;44255;49.244;7.726;2023-02-26T18:46:31;98701.31;;;-0.49;36.13
58467;BME280;44255;49.244;7.726;2023-02-26T18:48:59;98706.75;;;-0.56;35.90
58467;BME280;44255;49.244;7.726;2023-02-26T18:51:24;98701.97;;;-0.36;35.89
58467;BME280;44255;49.244;7.726;2023-02-26T18:53:50;98716.88;;;-0.82;35.78
58467;BME280;44255;49.244;7.726;2023-02-26T18:56:15;98716.59;;;-0.63;35.92
58467;BME280;44255;49.244;7.726;2023-02-26T18:58:40;98708.72;;;-0.68;35.64
58467;BME280;44255;49.244;7.726;2023-02-26T19:01:06;98704.00;;;-0.50;35.89
58467;BME280;44255;49.244;7.726;2023-02-26T19:03:31;98714.69;;;-0.56;35.33
58467;BME280;44255;49.244;7.726;2023-02-26T19:05:57;98714.03;;;-0.69;35.77
58467;BME280;44255;49.244;7.726;2023-02-26T19:08:23;98707.88;;;-0.70;35.86
58467;BME280;44255;49.244;7.726;2023-02-26T19:10:48;98715.50;;;-0.51;35.46
58467;BME280;44255;49.244;7.726;2023-02-26T19:13:13;98719.28;;;-0.66;35.70
58467;BME280;44255;49.244;7.726;2023-02-26T19:15:38;98721.19;;;-0.75;35.80
58467;BME280;44255;49.244;7.726;2023-02-26T19:18:04;98717.56;;;-0.69;35.86
58467;BME280;44255;49.244;7.726;2023-02-26T19:20:29;98727.75;;;-0.47;35.65
58467;BME280;44255;49.244;7.726;2023-02-26T19:22:54;98733.66;;;-0.83;35.86
58467;BME280;44255;49.244;7.726;2023-02-26T19:25:19;98737.00;;;-0.71;35.79
58467;BME280;44255;49.244;7.726;2023-02-26T19:27:49;98733.66;;;-0.80;36.06
58467;BME280;44255;49.244;7.726;2023-02-26T19:30:17;98730.94;;;-0.77;36.06
58467;BME280;44255;49.244;7.726;2023-02-26T19:32:43;98733.47;;;-0.70;35.61